< < Back
Terminal Aerodrome Forecast


Current Version              Previous Versions:   1  2  3  4  5  6  7  8  9  

Terminal Aerodrome Forecast

215
FTUS44 KOHX 250500
TAFBNA
TAF
KBNA 250520Z 2506/2606 17010KT P6SM SCT050 BKN100
     FM251200 18010G16KT P6SM VCSH OVC040
      TEMPO 2514/2518 3SM SHRA OVC025
     FM251800 18010G18KT P6SM VCSH BKN040 PROB30 2518/2524 3SM TSRA
      OVC015CB=



Latest METAR

904
SAUS70 KWBC 251500 RRN
MTRBNA
METAR KBNA 251453Z 17005KT 10SM SCT036 BKN044 OVC095 19/18 A3019 RMK AO2
RAE52 SLP219 P0007 60042 T01940183 50010


USA.gov is the U.S. government's official web portal to all federal, state and local government web resources and services.